createdAt,value
2019-05-06T00:00:55.405Z,98301.74
2019-05-06T00:03:14.921Z,98299.53
2019-05-06T00:05:44.198Z,98298.63
2019-05-06T00:08:14.478Z,98293.16
2019-05-06T00:10:44.753Z,98298.30
2019-05-06T00:13:14.160Z,98302.03
2019-05-06T00:15:43.681Z,98295.48
2019-05-06T00:18:13.844Z,98297.83
2019-05-06T00:20:43.844Z,98299.44
2019-05-06T00:23:18.835Z,98302.55
2019-05-06T00:25:59.678Z,98302.35
2019-05-06T00:28:38.046Z,98296.99
2019-05-06T00:31:13.151Z,98296.51
2019-05-06T00:33:40.270Z,98298.55
2019-05-06T00:36:09.549Z,98291.72
2019-05-06T00:38:40.597Z,98299.32
2019-05-06T00:41:14.439Z,98293.77
2019-05-06T00:43:43.779Z,98301.02
2019-05-06T00:46:13.883Z,98297.95
2019-05-06T00:48:44.908Z,98296.86
2019-05-06T00:51:14.385Z,98300.18
2019-05-06T00:53:47.401Z,98297.66
2019-05-06T00:56:16.686Z,98299.04
2019-05-06T00:58:45.947Z,98307.69
2019-05-06T01:01:26.357Z,98303.47
2019-05-06T01:03:46.250Z,98301.97
2019-05-06T01:06:15.541Z,98301.56
2019-05-06T01:08:44.851Z,98303.86
2019-05-06T01:11:14.469Z,98305.59
2019-05-06T01:13:49.879Z,98309.56
2019-05-06T01:16:20.400Z,98308.17
2019-05-06T01:18:49.894Z,98312.76
2019-05-06T01:21:19.171Z,98311.41
2019-05-06T01:23:48.441Z,98314.34
2019-05-06T01:26:17.956Z,98310.51
2019-05-06T01:28:47.266Z,98308.92
2019-05-06T01:31:16.761Z,98303.34
2019-05-06T01:33:46.043Z,98304.37
2019-05-06T01:36:15.405Z,98300.02
2019-05-06T01:39:16.772Z,98303.47
2019-05-06T01:42:21.750Z,98307.13
2019-05-06T01:44:51.049Z,98310.79
2019-05-06T01:47:20.334Z,98314.52
2019-05-06T01:49:49.626Z,98312.44
2019-05-06T01:52:18.930Z,98322.02
2019-05-06T01:54:48.229Z,98321.56
2019-05-06T01:57:17.491Z,98316.30
2019-05-06T01:59:46.777Z,98322.22
2019-05-06T02:02:16.030Z,98320.50
2019-05-06T02:04:45.304Z,98319.74
2019-05-06T02:07:14.645Z,98324.34
2019-05-06T02:09:44.721Z,98332.03
2019-05-06T02:12:14.304Z,98344.22
2019-05-06T02:14:43.782Z,98338.02
2019-05-06T02:17:14.440Z,98332.94
2019-05-06T02:19:43.973Z,98337.77
2019-05-06T02:22:50.986Z,98342.59
2019-05-06T02:25:26.781Z,98337.27
2019-05-06T02:27:56.071Z,98328.48
2019-05-06T02:30:50.199Z,98336.84
2019-05-06T02:33:35.711Z,98339.83
2019-05-06T02:36:15.019Z,98335.62
2019-05-06T02:38:47.971Z,98337.75
2019-05-06T02:41:15.469Z,98340.75
2019-05-06T02:43:45.211Z,98344.34
2019-05-06T02:46:14.528Z,98342.70
2019-05-06T02:49:07.403Z,98347.73
2019-05-06T02:51:36.661Z,98350.18
2019-05-06T02:54:07.057Z,98356.77
2019-05-06T02:56:36.326Z,98361.63
2019-05-06T02:59:05.700Z,98357.44
2019-05-06T03:01:34.959Z,98367.22
2019-05-06T03:04:13.097Z,98361.96
2019-05-06T03:06:44.732Z,98363.96
2019-05-06T03:09:13.722Z,98366.31
2019-05-06T03:11:43.881Z,98366.81
2019-05-06T03:14:14.096Z,98370.55
2019-05-06T03:16:44.088Z,98371.77
2019-05-06T03:19:13.752Z,98370.61
2019-05-06T03:22:03.405Z,98369.28
2019-05-06T03:24:43.651Z,98373.09
2019-05-06T03:27:14.694Z,98366.52
2019-05-06T03:29:44.673Z,98367.31
2019-05-06T03:32:21.407Z,98368.59
2019-05-06T03:35:01.245Z,98368.13
2019-05-06T03:37:17.430Z,98367.61
2019-05-06T03:39:46.931Z,98362.19
2019-05-06T03:42:16.952Z,98363.80
2019-05-06T03:45:04.179Z,98360.58
2019-05-06T03:47:56.207Z,98367.64
2019-05-06T03:50:25.495Z,98365.97
2019-05-06T03:52:56.488Z,98374.02
2019-05-06T03:55:27.163Z,98373.22
2019-05-06T03:57:57.521Z,98378.89
2019-05-06T04:00:26.788Z,98374.07
2019-05-06T04:02:56.101Z,98376.47
2019-05-06T04:05:25.368Z,98383.44
2019-05-06T04:07:54.946Z,98377.25
2019-05-06T04:10:24.206Z,98383.72
2019-05-06T04:12:54.590Z,98379.05
2019-05-06T04:15:26.876Z,98383.39
2019-05-06T04:17:59.254Z,98381.48
2019-05-06T04:20:46.138Z,98386.86
2019-05-06T04:23:43.476Z,98386.86
2019-05-06T04:26:32.946Z,98394.34
2019-05-06T04:29:03.872Z,98394.20
2019-05-06T04:31:33.961Z,98401.22
2019-05-06T04:34:12.765Z,98392.59
2019-05-06T04:36:34.779Z,98400.77
2019-05-06T04:39:05.613Z,98405.19
2019-05-06T04:41:35.324Z,98402.64
2019-05-06T04:44:04.781Z,98409.63
2019-05-06T04:46:35.077Z,98413.71
2019-05-06T04:49:04.646Z,98417.59
2019-05-06T04:51:36.969Z,98417.83
2019-05-06T04:54:05.969Z,98421.20
2019-05-06T04:56:35.753Z,98419.94
2019-05-06T04:59:06.226Z,98420.23
2019-05-06T05:01:37.010Z,98419.62
2019-05-06T05:04:22.828Z,98422.55
2019-05-06T05:07:04.785Z,98420.84
2019-05-06T05:09:35.570Z,98422.66
2019-05-06T05:12:13.358Z,98418.16
2019-05-06T05:14:56.008Z,98419.95
2019-05-06T05:17:52.489Z,98419.07
2019-05-06T05:20:36.451Z,98421.67
2019-05-06T05:22:52.893Z,98429.06
2019-05-06T05:25:23.056Z,98435.72
2019-05-06T05:27:52.870Z,98438.64
2019-05-06T05:30:22.301Z,98444.16
2019-05-06T05:32:52.077Z,98443.70
2019-05-06T05:35:22.703Z,98446.77
2019-05-06T05:37:52.940Z,98451.28
2019-05-06T05:40:22.565Z,98449.66
2019-05-06T05:43:29.317Z,98454.69
2019-05-06T05:45:58.658Z,98454.73
2019-05-06T05:48:51.983Z,98449.55
2019-05-06T05:51:22.242Z,98456.50
2019-05-06T05:53:52.440Z,98458.78
2019-05-06T05:56:24.001Z,98458.20
2019-05-06T05:58:53.503Z,98458.42
2019-05-06T06:01:25.001Z,98456.63
2019-05-06T06:03:54.348Z,98465.98
2019-05-06T06:06:26.802Z,98467.09
2019-05-06T06:08:57.355Z,98456.87
2019-05-06T06:11:32.795Z,98459.86
2019-05-06T06:14:07.016Z,98459.86
2019-05-06T06:17:02.661Z,98463.06
2019-05-06T06:19:45.014Z,98461.51
2019-05-06T06:22:17.734Z,98464.41
2019-05-06T06:24:47.718Z,98461.52
2019-05-06T06:27:17.543Z,98459.78
2019-05-06T06:29:48.156Z,98463.40
2019-05-06T06:32:23.312Z,98456.09
2019-05-06T06:35:11.046Z,98460.61
2019-05-06T06:37:57.304Z,98464.01
2019-05-06T06:40:28.917Z,98458.03
2019-05-06T06:43:02.690Z,98465.66
2019-05-06T06:45:32.672Z,98468.98
2019-05-06T06:48:03.156Z,98463.34
2019-05-06T06:50:33.023Z,98462.53
2019-05-06T06:53:03.150Z,98459.02
2019-05-06T06:55:32.528Z,98460.66
2019-05-06T06:58:19.491Z,98455.72
2019-05-06T07:01:07.059Z,98460.89
2019-05-06T07:03:52.824Z,98454.66
2019-05-06T07:06:35.365Z,98453.36
2019-05-06T07:09:06.320Z,98458.70
2019-05-06T07:11:35.667Z,98451.72
2019-05-06T07:14:04.967Z,98456.09
2019-05-06T07:16:34.239Z,98459.48
2019-05-06T07:19:06.763Z,98460.70
2019-05-06T07:21:57.360Z,98459.91
2019-05-06T07:24:26.688Z,98475.23
2019-05-06T07:27:08.173Z,98470.61
2019-05-06T07:29:37.486Z,98463.86
2019-05-06T07:32:06.798Z,98458.61
2019-05-06T07:34:36.071Z,98460.66
2019-05-06T07:37:05.399Z,98459.19
2019-05-06T07:39:34.686Z,98467.86
2019-05-06T07:42:07.901Z,98465.67
2019-05-06T07:44:54.380Z,98462.94
2019-05-06T07:47:42.793Z,98464.89
2019-05-06T07:50:23.943Z,98463.64
2019-05-06T07:53:07.830Z,98466.69
2019-05-06T07:55:38.259Z,98469.64
2019-05-06T07:58:08.136Z,98472.59
2019-05-06T08:00:37.738Z,98464.08
2019-05-06T08:03:07.239Z,98479.88
2019-05-06T08:05:36.533Z,98475.95
2019-05-06T08:08:06.087Z,98478.44
2019-05-06T08:10:35.567Z,98475.14
2019-05-06T08:13:04.930Z,98473.30
2019-05-06T08:15:34.530Z,98475.29
2019-05-06T08:18:03.812Z,98476.58
2019-05-06T08:20:39.547Z,98483.23
2019-05-06T08:23:22.057Z,98479.77
2019-05-06T08:25:54.308Z,98483.85
2019-05-06T08:28:37.578Z,98484.41
2019-05-06T08:30:59.902Z,98487.46
2019-05-06T08:33:29.320Z,98489.52
2019-05-06T08:36:08.810Z,98488.48
2019-05-06T08:38:50.388Z,98489.01
2019-05-06T08:41:19.690Z,98486.05
2019-05-06T08:43:48.985Z,98490.42
2019-05-06T08:46:18.264Z,98492.37
2019-05-06T08:48:47.581Z,98485.55
2019-05-06T08:51:24.356Z,98485.05
2019-05-06T08:54:03.202Z,98480.52
2019-05-06T08:56:32.632Z,98481.86
2019-05-06T08:59:03.178Z,98487.65
2019-05-06T09:01:42.458Z,98486.73
2019-05-06T09:04:12.637Z,98485.53
2019-05-06T09:06:43.333Z,98487.48
2019-05-06T09:09:13.174Z,98481.95
2019-05-06T09:12:03.879Z,98483.69
2019-05-06T09:14:33.309Z,98486.05
2019-05-06T09:17:03.029Z,98486.19
2019-05-06T09:19:33.230Z,98487.31
2019-05-06T09:22:02.728Z,98487.20
2019-05-06T09:24:33.775Z,98481.41
2019-05-06T09:27:22.597Z,98478.01
2019-05-06T09:29:54.711Z,98478.88
2019-05-06T09:32:27.937Z,98473.43
2019-05-06T09:34:58.911Z,98471.06
2019-05-06T09:37:28.207Z,98477.80
2019-05-06T09:39:57.496Z,98476.42
2019-05-06T09:42:26.786Z,98468.87
2019-05-06T09:44:56.047Z,98470.72
2019-05-06T09:47:42.228Z,98477.31
2019-05-06T09:50:13.711Z,98478.60
2019-05-06T09:52:42.988Z,98480.33
2019-05-06T09:55:26.708Z,98475.96
2019-05-06T09:57:57.947Z,98479.42
2019-05-06T10:00:28.308Z,98476.88
2019-05-06T10:02:57.592Z,98474.06
2019-05-06T10:05:26.996Z,98474.33
2019-05-06T10:07:57.729Z,98473.12
2019-05-06T10:10:27.214Z,98471.33
2019-05-06T10:12:56.593Z,98469.20
2019-05-06T10:15:25.891Z,98473.95
2019-05-06T10:18:13.189Z,98459.63
2019-05-06T10:20:44.450Z,98459.77
2019-05-06T10:23:14.560Z,98456.79
2019-05-06T10:25:44.517Z,98465.19
2019-05-06T10:28:33.888Z,98455.45
2019-05-06T10:31:04.722Z,98462.14
2019-05-06T10:33:35.305Z,98456.73
2019-05-06T10:36:04.904Z,98452.38
2019-05-06T10:38:50.342Z,98447.17
2019-05-06T10:41:22.563Z,98445.42
2019-05-06T10:44:23.166Z,98437.60
2019-05-06T10:46:52.827Z,98438.84
2019-05-06T10:49:22.544Z,98430.41
2019-05-06T10:52:12.743Z,98429.13
2019-05-06T10:54:42.207Z,98439.45
2019-05-06T10:57:24.438Z,98430.11
2019-05-06T10:59:53.756Z,98425.11
2019-05-06T11:02:48.247Z,98431.17
2019-05-06T11:05:18.954Z,98419.77
2019-05-06T11:07:48.308Z,98418.91
2019-05-06T11:10:26.830Z,98414.88
2019-05-06T11:12:52.333Z,98416.36
2019-05-06T11:15:23.242Z,98416.55
2019-05-06T11:17:52.747Z,98411.14
2019-05-06T11:20:24.197Z,98410.03
2019-05-06T11:22:53.713Z,98409.41
2019-05-06T11:25:23.166Z,98402.34
2019-05-06T11:27:52.878Z,98399.66
2019-05-06T11:30:42.524Z,98399.57
2019-05-06T11:33:30.132Z,98387.42
2019-05-06T11:36:02.367Z,98390.36
2019-05-06T11:38:32.262Z,98378.39
2019-05-06T11:41:01.766Z,98380.89
2019-05-06T11:43:32.449Z,98386.24
2019-05-06T11:46:01.991Z,98401.98
2019-05-06T11:48:32.810Z,98404.18
2019-05-06T11:51:03.975Z,98400.30
2019-05-06T11:53:33.260Z,98394.40
2019-05-06T11:56:10.013Z,98398.98
2019-05-06T11:58:49.867Z,98407.87
2019-05-06T12:01:32.860Z,98401.27
2019-05-06T12:04:02.808Z,98405.14
2019-05-06T12:06:33.049Z,98408.34
2019-05-06T12:09:06.449Z,98411.73
2019-05-06T12:11:33.774Z,98412.47
2019-05-06T12:14:03.090Z,98412.34
2019-05-06T12:16:33.128Z,98416.62
2019-05-06T12:19:02.989Z,98419.52
2019-05-06T12:21:32.941Z,98425.37
2019-05-06T12:24:03.616Z,98416.13
2019-05-06T12:26:32.876Z,98419.58
2019-05-06T12:29:02.451Z,98423.00
2019-05-06T12:31:32.773Z,98419.62
2019-05-06T12:34:02.848Z,98423.67
2019-05-06T12:36:32.700Z,98420.04
2019-05-06T12:39:20.141Z,98415.11
2019-05-06T12:42:15.030Z,98419.26
2019-05-06T12:44:59.210Z,98420.85
2019-05-06T12:47:48.586Z,98416.28
2019-05-06T12:50:18.105Z,98412.16
2019-05-06T12:52:47.391Z,98419.67
2019-05-06T12:55:21.672Z,98414.63
2019-05-06T12:57:48.871Z,98412.39
2019-05-06T13:00:18.265Z,98405.95
2019-05-06T13:02:48.788Z,98412.89
2019-05-06T13:05:18.286Z,98410.59
2019-05-06T13:07:48.122Z,98412.89
2019-05-06T13:10:23.076Z,98405.88
2019-05-06T13:13:03.923Z,98414.90
2019-05-06T13:15:33.208Z,98409.47
2019-05-06T13:18:07.380Z,98414.23
2019-05-06T13:20:38.024Z,98405.31
2019-05-06T13:23:35.098Z,98406.34
2019-05-06T13:26:04.582Z,98414.19
2019-05-06T13:28:37.752Z,98405.82
2019-05-06T13:31:17.155Z,98408.32
2019-05-06T13:33:54.063Z,98403.54
2019-05-06T13:36:23.087Z,98412.19
2019-05-06T13:39:09.180Z,98414.23
2019-05-06T13:41:23.398Z,98407.07
2019-05-06T13:44:17.562Z,98408.55
2019-05-06T13:46:53.342Z,98411.41
2019-05-06T13:49:47.656Z,98404.94
2019-05-06T13:52:22.772Z,98397.55
2019-05-06T13:54:53.179Z,98399.83
2019-05-06T13:57:22.408Z,98398.28
2019-05-06T13:59:53.215Z,98395.94
2019-05-06T14:02:35.587Z,98392.78
2019-05-06T14:05:06.574Z,98398.22
2019-05-06T14:07:37.093Z,98389.81
2019-05-06T14:10:07.057Z,98400.91
2019-05-06T14:12:36.350Z,98391.66
2019-05-06T14:15:07.399Z,98394.63
2019-05-06T14:17:36.827Z,98391.28
2019-05-06T14:20:06.847Z,98396.67
2019-05-06T14:22:36.263Z,98388.70
2019-05-06T14:25:33.348Z,98395.33
2019-05-06T14:28:13.294Z,98393.56
2019-05-06T14:30:54.678Z,98397.48
2019-05-06T14:33:23.977Z,98397.31
2019-05-06T14:35:53.275Z,98395.49
2019-05-06T14:38:24.521Z,98392.61
2019-05-06T14:41:27.018Z,98396.70
2019-05-06T14:43:52.653Z,98395.83
2019-05-06T14:46:22.898Z,98396.73
2019-05-06T14:48:53.410Z,98397.08
2019-05-06T14:51:22.917Z,98393.77
2019-05-06T14:53:53.076Z,98399.69
2019-05-06T14:56:32.232Z,98399.11
2019-05-06T14:59:05.668Z,98395.15
2019-05-06T15:01:36.887Z,98393.78
2019-05-06T15:04:06.461Z,98389.89
2019-05-06T15:06:35.805Z,98393.31
2019-05-06T15:09:07.710Z,98388.02
2019-05-06T15:11:37.010Z,98386.48
2019-05-06T15:14:06.500Z,98391.69
2019-05-06T15:16:35.776Z,98386.61
2019-05-06T15:19:05.320Z,98387.72
2019-05-06T15:21:38.319Z,98388.98
2019-05-06T15:24:06.732Z,98388.73
2019-05-06T15:26:35.987Z,98392.27
2019-05-06T15:29:05.377Z,98386.55
2019-05-06T15:31:45.778Z,98390.98
2019-05-06T15:34:22.480Z,98395.66
2019-05-06T15:37:08.152Z,98400.01
2019-05-06T15:39:37.468Z,98391.03
2019-05-06T15:42:06.733Z,98396.72
2019-05-06T15:44:36.031Z,98399.00
2019-05-06T15:47:06.515Z,98401.91
2019-05-06T15:49:37.630Z,98399.85
2019-05-06T15:52:07.008Z,98397.47
2019-05-06T15:54:36.279Z,98405.98
2019-05-06T15:57:05.619Z,98401.09
2019-05-06T15:59:41.111Z,98404.73
2019-05-06T16:02:11.956Z,98393.02
2019-05-06T16:04:43.325Z,98394.02
2019-05-06T16:07:15.503Z,98399.14
2019-05-06T16:09:46.976Z,98398.02
2019-05-06T16:12:19.383Z,98396.65
2019-05-06T16:14:53.118Z,98398.03
2019-05-06T16:17:24.142Z,98395.56
2019-05-06T16:19:56.328Z,98399.45
2019-05-06T16:22:27.792Z,98395.47
2019-05-06T16:25:04.711Z,98404.19
2019-05-06T16:27:36.496Z,98392.23
2019-05-06T16:30:10.127Z,98400.82
2019-05-06T16:32:41.968Z,98399.66
2019-05-06T16:35:11.940Z,98396.53
2019-05-06T16:37:42.530Z,98396.27
2019-05-06T16:40:12.432Z,98399.23
2019-05-06T16:42:45.920Z,98394.56
2019-05-06T16:45:14.062Z,98402.94
2019-05-06T16:47:44.829Z,98408.16
2019-05-06T16:50:17.010Z,98400.42
2019-05-06T16:52:47.415Z,98402.12
2019-05-06T16:55:24.199Z,98402.69
2019-05-06T16:58:02.595Z,98404.61
2019-05-06T17:00:33.651Z,98403.70
2019-05-06T17:03:11.702Z,98415.98
2019-05-06T17:06:07.124Z,98409.36
2019-05-06T17:08:36.950Z,98416.18
2019-05-06T17:11:08.281Z,98410.05
2019-05-06T17:13:39.633Z,98418.91
2019-05-06T17:16:13.690Z,98416.36
2019-05-06T17:18:44.526Z,98414.30
2019-05-06T17:21:16.251Z,98414.38
2019-05-06T17:23:47.504Z,98407.34
2019-05-06T17:26:19.259Z,98410.73
2019-05-06T17:29:22.671Z,98409.38
2019-05-06T17:32:19.294Z,98411.86
2019-05-06T17:34:52.879Z,98408.44
2019-05-06T17:37:42.230Z,98410.50
2019-05-06T17:40:15.842Z,98412.12
2019-05-06T17:42:45.955Z,98410.03
2019-05-06T17:45:36.478Z,98412.77
2019-05-06T17:48:18.048Z,98415.89
2019-05-06T17:51:08.466Z,98412.52
2019-05-06T17:53:42.612Z,98412.27
2019-05-06T17:56:14.178Z,98417.55
2019-05-06T17:58:45.140Z,98414.23
2019-05-06T18:01:16.091Z,98413.40
2019-05-06T18:03:46.144Z,98418.36
2019-05-06T18:06:15.464Z,98424.91
2019-05-06T18:08:46.501Z,98425.47
2019-05-06T18:11:15.793Z,98426.27
2019-05-06T18:13:45.071Z,98425.60
2019-05-06T18:16:15.633Z,98428.42
2019-05-06T18:18:44.986Z,98438.09
2019-05-06T18:21:14.282Z,98429.92
2019-05-06T18:23:43.598Z,98437.83
2019-05-06T18:26:12.919Z,98437.49
2019-05-06T18:28:44.042Z,98446.94
2019-05-06T18:31:14.554Z,98445.72
2019-05-06T18:33:43.860Z,98445.95
2019-05-06T18:36:13.208Z,98452.30
2019-05-06T18:38:42.556Z,98450.73
2019-05-06T18:41:12.081Z,98453.37
2019-05-06T18:43:43.254Z,98454.95
2019-05-06T18:46:13.432Z,98458.40
2019-05-06T18:48:42.870Z,98463.94
2019-05-06T18:51:13.986Z,98470.70
2019-05-06T18:53:43.296Z,98469.29
2019-05-06T18:56:12.779Z,98477.05
2019-05-06T18:58:42.881Z,98475.35
2019-05-06T19:01:13.281Z,98482.80
2019-05-06T19:03:55.441Z,98486.02
2019-05-06T19:06:24.718Z,98478.02
2019-05-06T19:09:03.262Z,98485.18
2019-05-06T19:11:32.811Z,98493.64
2019-05-06T19:14:02.245Z,98491.23
2019-05-06T19:16:48.328Z,98495.48
2019-05-06T19:19:06.059Z,98491.10
2019-05-06T19:21:35.578Z,98497.09
2019-05-06T19:24:04.873Z,98498.63
2019-05-06T19:26:34.191Z,98502.92
2019-05-06T19:29:04.587Z,98499.47
2019-05-06T19:31:34.360Z,98510.35
2019-05-06T19:34:06.938Z,98510.69
2019-05-06T19:36:37.509Z,98510.92
2019-05-06T19:39:07.956Z,98512.54
2019-05-06T19:41:37.241Z,98517.58
2019-05-06T19:44:06.620Z,98519.52
2019-05-06T19:46:35.915Z,98520.88
2019-05-06T19:49:05.224Z,98517.44
2019-05-06T19:51:35.196Z,98510.94
2019-05-06T19:54:04.735Z,98512.91
2019-05-06T19:56:35.126Z,98515.73
2019-05-06T19:59:04.493Z,98520.36
2019-05-06T20:01:33.806Z,98512.95
2019-05-06T20:04:03.215Z,98517.85
2019-05-06T20:06:52.361Z,98518.16
2019-05-06T20:09:32.922Z,98511.52
2019-05-06T20:12:22.998Z,98508.22
2019-05-06T20:14:46.121Z,98517.39
2019-05-06T20:17:15.484Z,98511.80
2019-05-06T20:19:44.791Z,98514.70
2019-05-06T20:22:14.075Z,98517.36
2019-05-06T20:24:43.350Z,98512.97
2019-05-06T20:27:13.261Z,98513.92
2019-05-06T20:29:43.900Z,98513.28
2019-05-06T20:32:14.710Z,98513.96
2019-05-06T20:34:44.024Z,98517.81
2019-05-06T20:37:13.629Z,98509.73
2019-05-06T20:39:43.475Z,98510.52
2019-05-06T20:42:13.019Z,98512.05
2019-05-06T20:44:43.427Z,98503.16
2019-05-06T20:47:13.210Z,98511.08
2019-05-06T20:49:43.261Z,98515.55
2019-05-06T20:52:12.551Z,98517.14
2019-05-06T20:54:42.882Z,98512.37
2019-05-06T20:57:12.442Z,98513.80
2019-05-06T20:59:42.170Z,98515.37
2019-05-06T21:02:12.473Z,98517.58
2019-05-06T21:04:43.211Z,98515.04
2019-05-06T21:07:13.641Z,98509.26
2019-05-06T21:09:43.333Z,98510.52
2019-05-06T21:12:13.705Z,98511.48
2019-05-06T21:14:43.007Z,98512.64
2019-05-06T21:17:12.566Z,98514.80
2019-05-06T21:19:43.756Z,98513.09
2019-05-06T21:22:13.393Z,98513.84
2019-05-06T21:24:43.179Z,98513.04
2019-05-06T21:27:14.034Z,98518.89
2019-05-06T21:29:43.351Z,98521.50
2019-05-06T21:32:12.612Z,98513.91
2019-05-06T21:34:46.411Z,98513.60
2019-05-06T21:37:15.707Z,98515.31
2019-05-06T21:39:44.999Z,98508.16
2019-05-06T21:42:14.600Z,98501.70
2019-05-06T21:44:43.888Z,98508.55
2019-05-06T21:47:14.258Z,98501.80
2019-05-06T21:49:43.566Z,98501.59
2019-05-06T21:52:13.251Z,98508.53
2019-05-06T21:54:43.405Z,98509.26
2019-05-06T21:57:12.986Z,98505.46
2019-05-06T21:59:42.830Z,98500.20
2019-05-06T22:02:14.436Z,98500.87
2019-05-06T22:04:44.031Z,98504.28
2019-05-06T22:07:14.532Z,98493.73
2019-05-06T22:09:44.160Z,98493.41
2019-05-06T22:12:13.788Z,98484.30
2019-05-06T22:14:43.163Z,98485.22
2019-05-06T22:17:14.111Z,98490.02
2019-05-06T22:19:43.850Z,98484.78
2019-05-06T22:22:14.630Z,98486.82
2019-05-06T22:24:57.387Z,98482.64
2019-05-06T22:27:22.160Z,98482.15
2019-05-06T22:29:52.866Z,98486.77
2019-05-06T22:32:23.157Z,98484.05
2019-05-06T22:34:52.593Z,98480.59
2019-05-06T22:37:22.180Z,98481.34
2019-05-06T22:39:52.774Z,98479.68
2019-05-06T22:42:24.958Z,98480.15
2019-05-06T22:44:54.396Z,98473.12
2019-05-06T22:47:23.659Z,98470.54
2019-05-06T22:49:54.338Z,98468.02
2019-05-06T22:52:23.798Z,98477.52
2019-05-06T22:54:53.098Z,98474.92
2019-05-06T22:57:23.552Z,98469.93
2019-05-06T22:59:53.018Z,98469.34
2019-05-06T23:02:43.794Z,98466.17
2019-05-06T23:05:13.299Z,98468.14
2019-05-06T23:07:42.581Z,98469.48
2019-05-06T23:10:12.093Z,98472.69
2019-05-06T23:12:43.342Z,98471.05
2019-05-06T23:15:12.556Z,98469.84
2019-05-06T23:17:43.282Z,98469.59
2019-05-06T23:20:12.589Z,98472.26
2019-05-06T23:22:42.346Z,98475.48
2019-05-06T23:25:12.610Z,98477.24
2019-05-06T23:27:44.059Z,98482.02
2019-05-06T23:30:12.937Z,98482.77
2019-05-06T23:32:42.455Z,98484.58
2019-05-06T23:35:12.833Z,98476.95
2019-05-06T23:38:18.319Z,98479.70
2019-05-06T23:41:23.214Z,98482.77
2019-05-06T23:44:41.526Z,98478.59
2019-05-06T23:47:35.581Z,98482.16
2019-05-06T23:50:42.826Z,98480.06
2019-05-06T23:53:47.475Z,98474.70
2019-05-06T23:56:43.359Z,98480.77
2019-05-06T23:59:13.066Z,98483.86
